sensor_id;sensor_type;location;lat;lon;timestamp;temperature;humidity
14014;DHT22;49110;52.584;13.408;2023-05-07T00:00:32;10.30;99.90
14014;DHT22;49110;52.584;13.408;2023-05-07T00:01:34;10.30;99.90
14014;DHT22;49110;52.584;13.408;2023-05-07T00:02:34;10.20;99.90
14014;DHT22;49110;52.584;13.408;2023-05-07T00:03:35;10.20;99.90
14014;DHT22;49110;52.584;13.408;2023-05-07T00:04:36;10.20;99.90
14014;DHT22;49110;52.584;13.408;2023-05-07T00:05:39;10.20;99.90
14014;DHT22;49110;52.584;13.408;2023-05-07T00:06:40;10.20;99.90
14014;DHT22;49110;52.584;13.408;2023-05-07T00:07:40;10.20;99.90
14014;DHT22;49110;52.584;13.408;2023-05-07T00:08:41;10.30;99.90
14014;DHT22;49110;52.584;13.408;2023-05-07T00:09:41;10.20;99.90
14014;DHT22;49110;52.584;13.408;2023-05-07T00:10:42;10.20;99.90
14014;DHT22;49110;52.584;13.408;2023-05-07T00:11:43;10.20;99.90
14014;DHT22;49110;52.584;13.408;2023-05-07T00:12:43;10.20;99.90
14014;DHT22;49110;52.584;13.408;2023-05-07T00:13:43;10.20;99.90
14014;DHT22;49110;52.584;13.408;2023-05-07T00:14:44;10.20;99.90
14014;DHT22;49110;52.584;13.408;2023-05-07T00:15:45;10.20;99.90
14014;DHT22;49110;52.584;13.408;2023-05-07T00:16:46;10.20;99.90
14014;DHT22;49110;52.584;13.408;2023-05-07T00:17:46;10.30;99.90
14014;DHT22;49110;52.584;13.408;2023-05-07T00:18:47;10.30;99.90
14014;DHT22;49110;52.584;13.408;2023-05-07T00:19:47;10.30;99.90
14014;DHT22;49110;52.584;13.408;2023-05-07T00:20:48;10.30;99.90
14014;DHT22;49110;52.584;13.408;2023-05-07T00:21:48;10.30;99.90
14014;DHT22;49110;52.584;13.408;2023-05-07T00:22:49;10.20;99.90
14014;DHT22;49110;52.584;13.408;2023-05-07T00:23:49;10.20;99.90
14014;DHT22;49110;52.584;13.408;2023-05-07T00:24:49;10.20;99.90
14014;DHT22;49110;52.584;13.408;2023-05-07T00:25:50;10.20;99.90
14014;DHT22;49110;52.584;13.408;2023-05-07T00:26:50;10.20;99.90
14014;DHT22;49110;52.584;13.408;2023-05-07T00:27:51;10.10;99.90
14014;DHT22;49110;52.584;13.408;2023-05-07T00:28:51;10.10;99.90
14014;DHT22;49110;52.584;13.408;2023-05-07T00:29:52;10.10;99.90
14014;DHT22;49110;52.584;13.408;2023-05-07T00:30:52;10.10;99.90
14014;DHT22;49110;52.584;13.408;2023-05-07T00:31:53;10.00;99.90
14014;DHT22;49110;52.584;13.408;2023-05-07T00:32:55;10.00;99.90
14014;DHT22;49110;52.584;13.408;2023-05-07T00:33:55;10.00;99.90
14014;DHT22;49110;52.584;13.408;2023-05-07T00:34:56;10.00;99.90
14014;DHT22;49110;52.584;13.408;2023-05-07T00:35:56;10.00;99.90
14014;DHT22;49110;52.584;13.408;2023-05-07T00:36:57;10.10;99.90
14014;DHT22;49110;52.584;13.408;2023-05-07T00:37:57;10.10;99.90
14014;DHT22;49110;52.584;13.408;2023-05-07T00:38:59;10.10;99.90
14014;DHT22;49110;52.584;13.408;2023-05-07T00:40:00;10.10;99.90
14014;DHT22;49110;52.584;13.408;2023-05-07T00:41:03;10.20;99.90
14014;DHT22;49110;52.584;13.408;2023-05-07T00:42:04;10.20;99.90
14014;DHT22;49110;52.584;13.408;2023-05-07T00:43:04;10.30;99.90
14014;DHT22;49110;52.584;13.408;2023-05-07T00:44:05;10.30;99.90
14014;DHT22;49110;52.584;13.408;2023-05-07T00:45:06;10.30;99.90
14014;DHT22;49110;52.584;13.408;2023-05-07T00:46:08;10.30;99.90
14014;DHT22;49110;52.584;13.408;2023-05-07T00:47:08;10.30;99.90
14014;DHT22;49110;52.584;13.408;2023-05-07T00:48:09;10.30;99.90
14014;DHT22;49110;52.584;13.408;2023-05-07T00:49:09;10.30;99.90
14014;DHT22;49110;52.584;13.408;2023-05-07T00:50:10;10.30;99.90
14014;DHT22;49110;52.584;13.408;2023-05-07T00:51:11;10.20;99.90
14014;DHT22;49110;52.584;13.408;2023-05-07T00:52:14;10.20;99.90
14014;DHT22;49110;52.584;13.408;2023-05-07T00:53:15;10.20;99.90
14014;DHT22;49110;52.584;13.408;2023-05-07T00:54:16;10.20;99.90
14014;DHT22;49110;52.584;13.408;2023-05-07T00:55:17;10.30;99.90
14014;DHT22;49110;52.584;13.408;2023-05-07T00:56:18;10.30;99.90
14014;DHT22;49110;52.584;13.408;2023-05-07T00:57:19;10.40;99.90
14014;DHT22;49110;52.584;13.408;2023-05-07T00:58:21;10.30;99.90
14014;DHT22;49110;52.584;13.408;2023-05-07T00:59:22;10.30;99.90
14014;DHT22;49110;52.584;13.408;2023-05-07T01:00:22;10.30;99.90
14014;DHT22;49110;52.584;13.408;2023-05-07T01:01:23;10.30;99.90
14014;DHT22;49110;52.584;13.408;2023-05-07T01:02:23;10.30;99.90
14014;DHT22;49110;52.584;13.408;2023-05-07T01:03:23;10.30;99.90
14014;DHT22;49110;52.584;13.408;2023-05-07T01:04:24;10.30;99.90
14014;DHT22;49110;52.584;13.408;2023-05-07T01:05:26;10.30;99.90
14014;DHT22;49110;52.584;13.408;2023-05-07T01:06:29;10.30;99.90
14014;DHT22;49110;52.584;13.408;2023-05-07T01:07:29;10.30;99.90
14014;DHT22;49110;52.584;13.408;2023-05-07T01:08:31;10.30;99.90
14014;DHT22;49110;52.584;13.408;2023-05-07T01:09:32;10.30;99.90
14014;DHT22;49110;52.584;13.408;2023-05-07T01:10:35;10.30;99.90
14014;DHT22;49110;52.584;13.408;2023-05-07T01:11:35;10.30;99.90
14014;DHT22;49110;52.584;13.408;2023-05-07T01:12:37;10.30;99.90
14014;DHT22;49110;52.584;13.408;2023-05-07T01:13:38;10.30;99.90
14014;DHT22;49110;52.584;13.408;2023-05-07T01:14:39;10.30;99.90
14014;DHT22;49110;52.584;13.408;2023-05-07T01:15:40;10.20;99.90
14014;DHT22;49110;52.584;13.408;2023-05-07T01:16:41;10.20;99.90
14014;DHT22;49110;52.584;13.408;2023-05-07T01:17:42;10.20;99.90
14014;DHT22;49110;52.584;13.408;2023-05-07T01:18:42;10.20;99.90
14014;DHT22;49110;52.584;13.408;2023-05-07T01:19:43;10.20;99.90
14014;DHT22;49110;52.584;13.408;2023-05-07T01:20:45;10.30;99.90
14014;DHT22;49110;52.584;13.408;2023-05-07T01:21:47;10.30;99.90
14014;DHT22;49110;52.584;13.408;2023-05-07T01:22:48;10.30;99.90
14014;DHT22;49110;52.584;13.408;2023-05-07T01:23:49;10.20;99.90
14014;DHT22;49110;52.584;13.408;2023-05-07T01:24:50;10.30;99.90
14014;DHT22;49110;52.584;13.408;2023-05-07T01:25:55;10.20;99.90
14014;DHT22;49110;52.584;13.408;2023-05-07T01:26:55;10.20;99.90
14014;DHT22;49110;52.584;13.408;2023-05-07T01:27:56;10.20;99.90
14014;DHT22;49110;52.584;13.408;2023-05-07T01:28:56;10.20;99.90
14014;DHT22;49110;52.584;13.408;2023-05-07T01:29:57;10.20;99.90
14014;DHT22;49110;52.584;13.408;2023-05-07T01:31:02;10.20;99.90
14014;DHT22;49110;52.584;13.408;2023-05-07T01:32:05;10.20;99.90
14014;DHT22;49110;52.584;13.408;2023-05-07T01:33:11;10.10;99.90
14014;DHT22;49110;52.584;13.408;2023-05-07T01:34:14;10.20;99.90
14014;DHT22;49110;52.584;13.408;2023-05-07T01:35:19;10.30;99.90
14014;DHT22;49110;52.584;13.408;2023-05-07T01:36:21;10.30;99.90
14014;DHT22;49110;52.584;13.408;2023-05-07T01:37:24;10.30;99.90
14014;DHT22;49110;52.584;13.408;2023-05-07T01:38:26;10.30;99.90
14014;DHT22;49110;52.584;13.408;2023-05-07T01:39:28;10.30;99.90
14014;DHT22;49110;52.584;13.408;2023-05-07T01:40:29;10.30;99.90
14014;DHT22;49110;52.584;13.408;2023-05-07T01:41:30;10.30;99.90
14014;DHT22;49110;52.584;13.408;2023-05-07T01:42:31;10.30;99.90
14014;DHT22;49110;52.584;13.408;2023-05-07T01:43:32;10.30;99.90
14014;DHT22;49110;52.584;13.408;2023-05-07T01:44:33;10.30;99.90
14014;DHT22;49110;52.584;13.408;2023-05-07T01:45:34;10.20;99.90
14014;DHT22;49110;52.584;13.408;2023-05-07T01:46:35;10.20;99.90
14014;DHT22;49110;52.584;13.408;2023-05-07T01:47:36;10.20;99.90
14014;DHT22;49110;52.584;13.408;2023-05-07T01:48:37;10.10;99.90
14014;DHT22;49110;52.584;13.408;2023-05-07T01:49:38;10.10;99.90
14014;DHT22;49110;52.584;13.408;2023-05-07T01:50:39;10.10;99.90
14014;DHT22;49110;52.584;13.408;2023-05-07T01:51:40;10.10;99.90
14014;DHT22;49110;52.584;13.408;2023-05-07T01:52:41;10.10;99.90
14014;DHT22;49110;52.584;13.408;2023-05-07T01:53:41;10.10;99.90
14014;DHT22;49110;52.584;13.408;2023-05-07T01:54:44;10.10;99.90
14014;DHT22;49110;52.584;13.408;2023-05-07T01:55:44;10.10;99.90
14014;DHT22;49110;52.584;13.408;2023-05-07T01:56:45;10.10;99.90
14014;DHT22;49110;52.584;13.408;2023-05-07T01:57:48;10.10;99.90
14014;DHT22;49110;52.584;13.408;2023-05-07T01:58:48;10.10;99.90
14014;DHT22;49110;52.584;13.408;2023-05-07T01:59:49;10.10;99.90
14014;DHT22;49110;52.584;13.408;2023-05-07T02:00:50;10.10;99.90
14014;DHT22;49110;52.584;13.408;2023-05-07T02:01:51;10.10;99.90
14014;DHT22;49110;52.584;13.408;2023-05-07T02:02:52;10.20;99.90
14014;DHT22;49110;52.584;13.408;2023-05-07T02:03:53;10.10;99.90
14014;DHT22;49110;52.584;13.408;2023-05-07T02:04:54;10.10;99.90
14014;DHT22;49110;52.584;13.408;2023-05-07T02:05:54;10.10;99.90
14014;DHT22;49110;52.584;13.408;2023-05-07T02:06:54;10.10;99.90
14014;DHT22;49110;52.584;13.408;2023-05-07T02:07:55;10.10;99.90
14014;DHT22;49110;52.584;13.408;2023-05-07T02:08:56;10.10;99.90
14014;DHT22;49110;52.584;13.408;2023-05-07T02:09:56;10.10;99.90
14014;DHT22;49110;52.584;13.408;2023-05-07T02:10:57;10.10;99.90
14014;DHT22;49110;52.584;13.408;2023-05-07T02:11:57;10.10;99.90
14014;DHT22;49110;52.584;13.408;2023-05-07T02:12:58;10.10;99.90
14014;DHT22;49110;52.584;13.408;2023-05-07T02:13:59;10.10;99.90
14014;DHT22;49110;52.584;13.408;2023-05-07T02:15:00;10.10;99.90
14014;DHT22;49110;52.584;13.408;2023-05-07T02:16:01;10.10;99.90
14014;DHT22;49110;52.584;13.408;2023-05-07T02:17:02;10.10;99.90
14014;DHT22;49110;52.584;13.408;2023-05-07T02:18:05;10.10;99.90
14014;DHT22;49110;52.584;13.408;2023-05-07T02:19:06;10.10;99.90
14014;DHT22;49110;52.584;13.408;2023-05-07T02:20:07;10.10;99.90
14014;DHT22;49110;52.584;13.408;2023-05-07T02:21:13;10.10;99.90
14014;DHT22;49110;52.584;13.408;2023-05-07T02:22:13;10.10;99.90
14014;DHT22;49110;52.584;13.408;2023-05-07T02:23:14;10.10;99.90
14014;DHT22;49110;52.584;13.408;2023-05-07T02:24:14;10.10;99.90
14014;DHT22;49110;52.584;13.408;2023-05-07T02:25:15;10.10;99.90
14014;DHT22;49110;52.584;13.408;2023-05-07T02:26:16;10.10;99.90
14014;DHT22;49110;52.584;13.408;2023-05-07T02:27:16;10.10;99.90
14014;DHT22;49110;52.584;13.408;2023-05-07T02:28:17;10.20;99.90
14014;DHT22;49110;52.584;13.408;2023-05-07T02:29:17;10.20;99.90
14014;DHT22;49110;52.584;13.408;2023-05-07T02:30:18;10.10;99.90
14014;DHT22;49110;52.584;13.408;2023-05-07T02:31:18;10.20;99.90
14014;DHT22;49110;52.584;13.408;2023-05-07T02:32:19;10.10;99.90
14014;DHT22;49110;52.584;13.408;2023-05-07T02:33:20;10.10;99.90
14014;DHT22;49110;52.584;13.408;2023-05-07T02:34:20;10.10;99.90
14014;DHT22;49110;52.584;13.408;2023-05-07T02:35:21;10.10;99.90
14014;DHT22;49110;52.584;13.408;2023-05-07T02:36:21;10.10;99.90
14014;DHT22;49110;52.584;13.408;2023-05-07T02:37:22;10.20;99.90
14014;DHT22;49110;52.584;13.408;2023-05-07T02:38:23;10.20;99.90
14014;DHT22;49110;52.584;13.408;2023-05-07T02:39:23;10.10;99.90
14014;DHT22;49110;52.584;13.408;2023-05-07T02:40:24;10.10;99.90
14014;DHT22;49110;52.584;13.408;2023-05-07T02:41:24;10.10;99.90
14014;DHT22;49110;52.584;13.408;2023-05-07T02:42:25;10.00;99.90
14014;DHT22;49110;52.584;13.408;2023-05-07T02:43:25;10.00;99.90
14014;DHT22;49110;52.584;13.408;2023-05-07T02:44:26;10.00;99.90
14014;DHT22;49110;52.584;13.408;2023-05-07T02:45:26;9.90;99.90
14014;DHT22;49110;52.584;13.408;2023-05-07T02:46:26;10.00;99.90
14014;DHT22;49110;52.584;13.408;2023-05-07T02:47:27;10.00;99.90
14014;DHT22;49110;52.584;13.408;2023-05-07T02:48:28;10.00;99.90
14014;DHT22;49110;52.584;13.408;2023-05-07T02:49:29;10.00;99.90
14014;DHT22;49110;52.584;13.408;2023-05-07T02:50:29;10.10;99.90
14014;DHT22;49110;52.584;13.408;2023-05-07T02:51:30;10.10;99.90
14014;DHT22;49110;52.584;13.408;2023-05-07T02:52:31;10.20;99.90
14014;DHT22;49110;52.584;13.408;2023-05-07T02:53:31;10.30;99.90
14014;DHT22;49110;52.584;13.408;2023-05-07T02:54:32;10.30;99.90
14014;DHT22;49110;52.584;13.408;2023-05-07T02:55:32;10.40;99.90
14014;DHT22;49110;52.584;13.408;2023-05-07T02:56:33;10.40;99.90
14014;DHT22;49110;52.584;13.408;2023-05-07T02:57:33;10.40;99.90
14014;DHT22;49110;52.584;13.408;2023-05-07T02:58:34;10.40;99.90
14014;DHT22;49110;52.584;13.408;2023-05-07T02:59:34;10.40;99.90
14014;DHT22;49110;52.584;13.408;2023-05-07T03:00:35;10.30;99.90
14014;DHT22;49110;52.584;13.408;2023-05-07T03:01:35;10.30;99.90
14014;DHT22;49110;52.584;13.408;2023-05-07T03:02:36;10.20;99.90
14014;DHT22;49110;52.584;13.408;2023-05-07T03:03:36;10.20;99.90
14014;DHT22;49110;52.584;13.408;2023-05-07T03:04:37;10.20;99.90
14014;DHT22;49110;52.584;13.408;2023-05-07T03:05:38;10.20;99.90
14014;DHT22;49110;52.584;13.408;2023-05-07T03:06:38;10.20;99.90
14014;DHT22;49110;52.584;13.408;2023-05-07T03:07:39;10.20;99.90
14014;DHT22;49110;52.584;13.408;2023-05-07T03:08:39;10.30;99.90
14014;DHT22;49110;52.584;13.408;2023-05-07T03:09:40;10.30;99.90
14014;DHT22;49110;52.584;13.408;2023-05-07T03:10:41;10.30;99.90
14014;DHT22;49110;52.584;13.408;2023-05-07T03:11:41;10.20;99.90
14014;DHT22;49110;52.584;13.408;2023-05-07T03:12:42;10.20;99.90
14014;DHT22;49110;52.584;13.408;2023-05-07T03:13:42;10.30;99.90
14014;DHT22;49110;52.584;13.408;2023-05-07T03:14:43;10.40;99.90
14014;DHT22;49110;52.584;13.408;2023-05-07T03:15:43;10.40;99.90
14014;DHT22;49110;52.584;13.408;2023-05-07T03:16:44;10.40;99.90
14014;DHT22;49110;52.584;13.408;2023-05-07T03:17:44;10.30;99.90
14014;DHT22;49110;52.584;13.408;2023-05-07T03:18:45;10.30;99.90
14014;DHT22;49110;52.584;13.408;2023-05-07T03:19:45;10.30;99.90
14014;DHT22;49110;52.584;13.408;2023-05-07T03:20:48;10.30;99.90
14014;DHT22;49110;52.584;13.408;2023-05-07T03:21:48;10.30;99.90
14014;DHT22;49110;52.584;13.408;2023-05-07T03:22:49;10.30;99.90
14014;DHT22;49110;52.584;13.408;2023-05-07T03:23:50;10.30;99.90
14014;DHT22;49110;52.584;13.408;2023-05-07T03:24:50;10.20;99.90
14014;DHT22;49110;52.584;13.408;2023-05-07T03:25:51;10.20;99.90
14014;DHT22;49110;52.584;13.408;2023-05-07T03:26:51;10.20;99.90
14014;DHT22;49110;52.584;13.408;2023-05-07T03:27:52;10.20;99.90
14014;DHT22;49110;52.584;13.408;2023-05-07T03:28:52;10.20;99.90
14014;DHT22;49110;52.584;13.408;2023-05-07T03:29:53;10.20;99.90
14014;DHT22;49110;52.584;13.408;2023-05-07T03:30:53;10.20;99.90
14014;DHT22;49110;52.584;13.408;2023-05-07T03:31:54;10.10;99.90
14014;DHT22;49110;52.584;13.408;2023-05-07T03:32:54;10.10;99.90
14014;DHT22;49110;52.584;13.408;2023-05-07T03:33:56;10.10;99.90
14014;DHT22;49110;52.584;13.408;2023-05-07T03:34:57;10.10;99.90
14014;DHT22;49110;52.584;13.408;2023-05-07T03:35:57;10.10;99.90
14014;DHT22;49110;52.584;13.408;2023-05-07T03:36:58;10.10;99.90
14014;DHT22;49110;52.584;13.408;2023-05-07T03:37:58;10.10;99.90
14014;DHT22;49110;52.584;13.408;2023-05-07T03:38:59;10.10;99.90
14014;DHT22;49110;52.584;13.408;2023-05-07T03:39:59;10.10;99.90
14014;DHT22;49110;52.584;13.408;2023-05-07T03:41:00;10.10;99.90
14014;DHT22;49110;52.584;13.408;2023-05-07T03:42:00;10.10;99.90
14014;DHT22;49110;52.584;13.408;2023-05-07T03:43:01;10.10;99.90
14014;DHT22;49110;52.584;13.408;2023-05-07T03:44:01;10.20;99.90
14014;DHT22;49110;52.584;13.408;2023-05-07T03:45:02;10.20;99.90
14014;DHT22;49110;52.584;13.408;2023-05-07T03:46:03;10.20;99.90
14014;DHT22;49110;52.584;13.408;2023-05-07T03:47:04;10.20;99.90
14014;DHT22;49110;52.584;13.408;2023-05-07T03:48:04;10.20;99.90
14014;DHT22;49110;52.584;13.408;2023-05-07T03:49:05;10.20;99.90
14014;DHT22;49110;52.584;13.408;2023-05-07T03:50:05;10.20;99.90
14014;DHT22;49110;52.584;13.408;2023-05-07T03:51:06;10.10;99.90
14014;DHT22;49110;52.584;13.408;2023-05-07T03:52:07;10.10;99.90
14014;DHT22;49110;52.584;13.408;2023-05-07T03:53:07;10.20;99.90
14014;DHT22;49110;52.584;13.408;2023-05-07T03:54:08;10.10;99.90
14014;DHT22;49110;52.584;13.408;2023-05-07T03:55:09;10.10;99.90
14014;DHT22;49110;52.584;13.408;2023-05-07T03:56:09;10.10;99.90
14014;DHT22;49110;52.584;13.408;2023-05-07T03:57:10;10.10;99.90
14014;DHT22;49110;52.584;13.408;2023-05-07T03:58:10;10.10;99.90
14014;DHT22;49110;52.584;13.408;2023-05-07T03:59:12;10.10;99.90
14014;DHT22;49110;52.584;13.408;2023-05-07T04:00:13;10.00;99.90
14014;DHT22;49110;52.584;13.408;2023-05-07T04:01:14;10.00;99.90
14014;DHT22;49110;52.584;13.408;2023-05-07T04:02:14;10.00;99.90
14014;DHT22;49110;52.584;13.408;2023-05-07T04:03:15;10.00;99.90
14014;DHT22;49110;52.584;13.408;2023-05-07T04:04:16;10.00;99.90
14014;DHT22;49110;52.584;13.408;2023-05-07T04:05:16;10.00;99.90
14014;DHT22;49110;52.584;13.408;2023-05-07T04:06:17;10.00;99.90
14014;DHT22;49110;52.584;13.408;2023-05-07T04:07:17;10.00;99.90
14014;DHT22;49110;52.584;13.408;2023-05-07T04:08:18;10.10;99.90
14014;DHT22;49110;52.584;13.408;2023-05-07T04:09:18;10.10;99.90
14014;DHT22;49110;52.584;13.408;2023-05-07T04:10:19;10.10;99.90
14014;DHT22;49110;52.584;13.408;2023-05-07T04:11:19;10.00;99.90
14014;DHT22;49110;52.584;13.408;2023-05-07T04:12:20;10.00;99.90
14014;DHT22;49110;52.584;13.408;2023-05-07T04:13:21;10.10;99.90
14014;DHT22;49110;52.584;13.408;2023-05-07T04:14:21;10.10;99.90
14014;DHT22;49110;52.584;13.408;2023-05-07T04:15:21;10.10;99.90
14014;DHT22;49110;52.584;13.408;2023-05-07T04:16:22;10.00;99.90
14014;DHT22;49110;52.584;13.408;2023-05-07T04:17:22;10.00;99.90
14014;DHT22;49110;52.584;13.408;2023-05-07T04:18:23;10.10;99.90
14014;DHT22;49110;52.584;13.408;2023-05-07T04:19:23;10.10;99.90
14014;DHT22;49110;52.584;13.408;2023-05-07T04:20:24;10.10;99.90
14014;DHT22;49110;52.584;13.408;2023-05-07T04:21:24;10.10;99.90
14014;DHT22;49110;52.584;13.408;2023-05-07T04:22:26;10.10;99.90
14014;DHT22;49110;52.584;13.408;2023-05-07T04:23:27;10.10;99.90
14014;DHT22;49110;52.584;13.408;2023-05-07T04:24:28;10.10;99.90
14014;DHT22;49110;52.584;13.408;2023-05-07T04:25:31;10.10;99.90
14014;DHT22;49110;52.584;13.408;2023-05-07T04:26:31;10.10;99.90
14014;DHT22;49110;52.584;13.408;2023-05-07T04:27:32;10.10;99.90
14014;DHT22;49110;52.584;13.408;2023-05-07T04:28:32;10.20;99.90
14014;DHT22;49110;52.584;13.408;2023-05-07T04:29:33;10.20;99.90
14014;DHT22;49110;52.584;13.408;2023-05-07T04:30:33;10.20;99.90
14014;DHT22;49110;52.584;13.408;2023-05-07T04:31:34;10.20;99.90
14014;DHT22;49110;52.584;13.408;2023-05-07T04:32:34;10.20;99.90
14014;DHT22;49110;52.584;13.408;2023-05-07T04:33:36;10.20;99.90
14014;DHT22;49110;52.584;13.408;2023-05-07T04:34:37;10.10;99.90
14014;DHT22;49110;52.584;13.408;2023-05-07T04:35:37;10.20;99.90
14014;DHT22;49110;52.584;13.408;2023-05-07T04:36:38;10.20;99.90
14014;DHT22;49110;52.584;13.408;2023-05-07T04:37:38;10.20;99.90
14014;DHT22;49110;52.584;13.408;2023-05-07T04:38:40;10.20;99.90
14014;DHT22;49110;52.584;13.408;2023-05-07T04:39:40;10.20;99.90
14014;DHT22;49110;52.584;13.408;2023-05-07T04:40:41;10.20;99.90
14014;DHT22;49110;52.584;13.408;2023-05-07T04:41:41;10.20;99.90
14014;DHT22;49110;52.584;13.408;2023-05-07T04:42:42;10.20;99.90
14014;DHT22;49110;52.584;13.408;2023-05-07T04:43:42;10.20;99.90
14014;DHT22;49110;52.584;13.408;2023-05-07T04:44:44;10.20;99.90
14014;DHT22;49110;52.584;13.408;2023-05-07T04:45:45;10.20;99.90
14014;DHT22;49110;52.584;13.408;2023-05-07T04:46:46;10.10;99.90
14014;DHT22;49110;52.584;13.408;2023-05-07T04:47:46;10.10;99.90
14014;DHT22;49110;52.584;13.408;2023-05-07T04:48:46;10.20;99.90
14014;DHT22;49110;52.584;13.408;2023-05-07T04:49:47;10.10;99.90
14014;DHT22;49110;52.584;13.408;2023-05-07T04:50:48;10.10;99.90
14014;DHT22;49110;52.584;13.408;2023-05-07T04:51:49;10.10;99.90
14014;DHT22;49110;52.584;13.408;2023-05-07T04:52:49;10.10;99.90
14014;DHT22;49110;52.584;13.408;2023-05-07T04:53:50;10.10;99.90
14014;DHT22;49110;52.584;13.408;2023-05-07T04:54:50;10.10;99.90
14014;DHT22;49110;52.584;13.408;2023-05-07T04:55:57;10.00;99.90
14014;DHT22;49110;52.584;13.408;2023-05-07T04:56:58;10.00;99.90
14014;DHT22;49110;52.584;13.408;2023-05-07T04:57:58;10.00;99.90
14014;DHT22;49110;52.584;13.408;2023-05-07T04:59:01;10.00;99.90
14014;DHT22;49110;52.584;13.408;2023-05-07T05:00:02;10.00;99.90
14014;DHT22;49110;52.584;13.408;2023-05-07T05:01:04;10.00;99.90
14014;DHT22;49110;52.584;13.408;2023-05-07T05:02:05;10.10;99.90
14014;DHT22;49110;52.584;13.408;2023-05-07T05:03:08;10.10;99.90
14014;DHT22;49110;52.584;13.408;2023-05-07T05:04:09;10.10;99.90
14014;DHT22;49110;52.584;13.408;2023-05-07T05:05:10;10.10;99.90
14014;DHT22;49110;52.584;13.408;2023-05-07T05:06:11;10.10;99.90
14014;DHT22;49110;52.584;13.408;2023-05-07T05:07:11;10.20;99.90
14014;DHT22;49110;52.584;13.408;2023-05-07T05:08:12;10.20;99.90
14014;DHT22;49110;52.584;13.408;2023-05-07T05:09:12;10.20;99.90
14014;DHT22;49110;52.584;13.408;2023-05-07T05:10:13;10.20;99.90
14014;DHT22;49110;52.584;13.408;2023-05-07T05:11:14;10.20;99.90
14014;DHT22;49110;52.584;13.408;2023-05-07T05:12:15;10.20;99.90
14014;DHT22;49110;52.584;13.408;2023-05-07T05:13:15;10.20;99.90
14014;DHT22;49110;52.584;13.408;2023-05-07T05:14:16;10.30;99.90
14014;DHT22;49110;52.584;13.408;2023-05-07T05:15:16;10.20;99.90
14014;DHT22;49110;52.584;13.408;2023-05-07T05:16:17;10.20;99.90
14014;DHT22;49110;52.584;13.408;2023-05-07T05:17:17;10.30;99.90
14014;DHT22;49110;52.584;13.408;2023-05-07T05:18:18;10.30;99.90
14014;DHT22;49110;52.584;13.408;2023-05-07T05:19:18;10.30;99.90
14014;DHT22;49110;52.584;13.408;2023-05-07T05:20:19;10.30;99.90
14014;DHT22;49110;52.584;13.408;2023-05-07T05:21:20;10.40;99.90
14014;DHT22;49110;52.584;13.408;2023-05-07T05:22:20;10.40;99.90
14014;DHT22;49110;52.584;13.408;2023-05-07T05:23:21;10.40;99.90
14014;DHT22;49110;52.584;13.408;2023-05-07T05:24:21;10.50;99.90
14014;DHT22;49110;52.584;13.408;2023-05-07T05:25:22;10.50;99.90
14014;DHT22;49110;52.584;13.408;2023-05-07T05:26:22;10.40;99.90
14014;DHT22;49110;52.584;13.408;2023-05-07T05:27:23;10.40;99.90
14014;DHT22;49110;52.584;13.408;2023-05-07T05:28:23;10.30;99.90
14014;DHT22;49110;52.584;13.408;2023-05-07T05:29:24;10.30;99.90
14014;DHT22;49110;52.584;13.408;2023-05-07T05:30:24;10.30;99.90
14014;DHT22;49110;52.584;13.408;2023-05-07T05:31:25;10.30;99.90
14014;DHT22;49110;52.584;13.408;2023-05-07T05:32:25;10.30;99.90
14014;DHT22;49110;52.584;13.408;2023-05-07T05:33:26;10.30;99.90
14014;DHT22;49110;52.584;13.408;2023-05-07T05:34:26;10.30;99.90
14014;DHT22;49110;52.584;13.408;2023-05-07T05:35:29;10.20;99.90
14014;DHT22;49110;52.584;13.408;2023-05-07T05:36:30;10.20;99.90
14014;DHT22;49110;52.584;13.408;2023-05-07T05:37:31;10.20;99.90
14014;DHT22;49110;52.584;13.408;2023-05-07T05:38:31;10.20;99.90
14014;DHT22;49110;52.584;13.408;2023-05-07T05:39:32;10.20;99.90
14014;DHT22;49110;52.584;13.408;2023-05-07T05:40:32;10.30;99.90
14014;DHT22;49110;52.584;13.408;2023-05-07T05:41:33;10.40;99.90
14014;DHT22;49110;52.584;13.408;2023-05-07T05:42:34;10.40;99.90
14014;DHT22;49110;52.584;13.408;2023-05-07T05:43:34;10.50;99.90
14014;DHT22;49110;52.584;13.408;2023-05-07T05:44:34;10.50;99.90
14014;DHT22;49110;52.584;13.408;2023-05-07T05:45:35;10.40;99.90
14014;DHT22;49110;52.584;13.408;2023-05-07T05:46:35;10.30;99.90
14014;DHT22;49110;52.584;13.408;2023-05-07T05:47:37;10.40;99.90
14014;DHT22;49110;52.584;13.408;2023-05-07T05:48:37;10.40;99.90
14014;DHT22;49110;52.584;13.408;2023-05-07T05:49:38;10.40;99.90
14014;DHT22;49110;52.584;13.408;2023-05-07T05:50:38;10.40;99.90
14014;DHT22;49110;52.584;13.408;2023-05-07T05:51:40;10.50;99.90
14014;DHT22;49110;52.584;13.408;2023-05-07T05:52:40;10.50;99.90
14014;DHT22;49110;52.584;13.408;2023-05-07T05:53:41;10.60;99.90
14014;DHT22;49110;52.584;13.408;2023-05-07T05:54:41;10.60;99.90
14014;DHT22;49110;52.584;13.408;2023-05-07T05:55:42;10.70;99.90
14014;DHT22;49110;52.584;13.408;2023-05-07T05:56:43;10.80;99.90
14014;DHT22;49110;52.584;13.408;2023-05-07T05:57:44;10.90;99.90
14014;DHT22;49110;52.584;13.408;2023-05-07T05:58:45;11.00;99.90
14014;DHT22;49110;52.584;13.408;2023-05-07T05:59:46;11.00;99.90
14014;DHT22;49110;52.584;13.408;2023-05-07T06:00:47;11.10;99.90
14014;DHT22;49110;52.584;13.408;2023-05-07T06:01:48;11.10;99.90
14014;DHT22;49110;52.584;13.408;2023-05-07T06:02:49;11.10;99.90
14014;DHT22;49110;52.584;13.408;2023-05-07T06:03:49;11.00;99.90
14014;DHT22;49110;52.584;13.408;2023-05-07T06:04:50;10.90;99.90
14014;DHT22;49110;52.584;13.408;2023-05-07T06:05:50;10.80;99.90
14014;DHT22;49110;52.584;13.408;2023-05-07T06:06:51;10.80;99.90
14014;DHT22;49110;52.584;13.408;2023-05-07T06:07:51;10.80;99.90
14014;DHT22;49110;52.584;13.408;2023-05-07T06:08:52;10.80;99.90
14014;DHT22;49110;52.584;13.408;2023-05-07T06:09:52;10.80;99.90
14014;DHT22;49110;52.584;13.408;2023-05-07T06:10:52;10.80;99.90
14014;DHT22;49110;52.584;13.408;2023-05-07T06:11:53;10.70;99.90
14014;DHT22;49110;52.584;13.408;2023-05-07T06:12:53;10.90;99.90
14014;DHT22;49110;52.584;13.408;2023-05-07T06:13:54;10.80;99.90
14014;DHT22;49110;52.584;13.408;2023-05-07T06:14:54;10.80;99.90
14014;DHT22;49110;52.584;13.408;2023-05-07T06:15:55;10.90;99.90
14014;DHT22;49110;52.584;13.408;2023-05-07T06:16:57;10.90;99.90
14014;DHT22;49110;52.584;13.408;2023-05-07T06:17:57;10.80;99.90